Time;durP1;ratioP1;P1;durP2;ratioP2;P2;SDS_P1;SDS_P2;PMS_P1;PMS_P2;Temp;Humidity;BMP_temperature;BMP_pressure;BME280_temperature;BME280_humidity;BME280_pressure;Samples;Min_cycle;Max_cycle;Signal;HPM_P1;HPM_P2
2023/06/16 00:00:20;;;;;;;5.60;4.30;;;15.30;99.90;;;;;;4959935;28;20273;-76
2023/06/16 00:02:48;;;;;;;4.93;4.10;;;15.40;99.90;;;;;;4961321;28;20277;-79
2023/06/16 00:05:15;;;;;;;4.77;4.27;;;15.40;99.90;;;;;;4959171;28;20276;-78
2023/06/16 00:07:42;;;;;;;7.40;4.47;;;15.40;99.90;;;;;;4959295;28;20253;-77
2023/06/16 00:10:11;;;;;;;4.97;4.07;;;15.40;99.90;;;;;;4961760;28;20210;-78
2023/06/16 00:12:38;;;;;;;5.83;4.13;;;15.40;99.90;;;;;;4959899;28;20269;-78
2023/06/16 00:15:06;;;;;;;5.27;4.30;;;15.40;99.90;;;;;;4961200;28;20195;-77
2023/06/16 00:17:46;;;;;;;5.23;4.43;;;15.40;99.90;;;;;;4960174;28;20226;-79
2023/06/16 00:20:14;;;;;;;5.07;4.27;;;15.40;99.90;;;;;;4959483;28;20203;-78
2023/06/16 00:22:41;;;;;;;5.57;4.27;;;15.40;99.90;;;;;;4960096;28;20278;-80
2023/06/16 00:25:10;;;;;;;5.50;4.10;;;15.40;99.90;;;;;;4960260;28;20206;-80
2023/06/16 00:27:36;;;;;;;6.17;4.30;;;15.40;99.90;;;;;;4962980;28;20249;-77
2023/06/16 00:30:05;;;;;;;5.63;4.30;;;15.30;99.90;;;;;;4960363;28;20754;-80
2023/06/16 00:32:31;;;;;;;4.83;4.10;;;15.30;99.90;;;;;;4962490;28;20197;-80
2023/06/16 00:34:59;;;;;;;4.70;3.87;;;15.40;99.90;;;;;;4960804;28;20206;-80
2023/06/16 00:37:26;;;;;;;5.10;3.87;;;15.40;99.90;;;;;;4958777;28;20236;-79
2023/06/16 00:39:52;;;;;;;4.57;4.07;;;15.40;99.90;;;;;;4958626;28;20213;-76
2023/06/16 00:42:20;;;;;;;4.17;3.77;;;15.40;99.90;;;;;;4959899;28;20600;-77
2023/06/16 00:44:47;;;;;;;4.03;3.63;;;15.50;99.90;;;;;;4958035;28;20649;-77
2023/06/16 00:47:14;;;;;;;4.83;3.93;;;15.50;99.90;;;;;;4960631;28;20236;-80
2023/06/16 00:49:41;;;;;;;4.57;3.90;;;15.50;99.90;;;;;;4961993;28;20210;-78
2023/06/16 00:52:13;;;;;;;4.27;3.67;;;15.50;99.90;;;;;;4960575;28;20224;-80
2023/06/16 00:54:40;;;;;;;4.60;3.53;;;15.50;99.90;;;;;;4961349;28;20209;-79
2023/06/16 00:57:07;;;;;;;4.57;3.73;;;15.50;99.90;;;;;;4961028;28;20638;-79
2023/06/16 00:59:35;;;;;;;4.37;3.57;;;15.60;99.90;;;;;;4961240;28;20273;-78
2023/06/16 01:02:04;;;;;;;5.00;3.37;;;15.50;99.90;;;;;;4958681;28;20198;-77
2023/06/16 01:04:31;;;;;;;3.97;3.47;;;15.50;99.90;;;;;;4958559;28;20587;-77
2023/06/16 01:07:09;;;;;;;4.37;3.87;;;15.50;99.90;;;;;;4960436;28;20245;-79
2023/06/16 01:09:47;;;;;;;4.13;3.73;;;15.60;99.90;;;;;;4960014;28;20214;-77
2023/06/16 01:12:24;;;;;;;4.57;3.50;;;15.60;99.90;;;;;;4951864;28;20232;-78
2023/06/16 01:15:01;;;;;;;3.87;3.40;;;15.60;99.90;;;;;;4960567;28;20210;-78
2023/06/16 01:17:32;;;;;;;4.60;3.80;;;15.50;99.90;;;;;;4956938;28;20643;-77
2023/06/16 01:20:07;;;;;;;3.70;3.40;;;15.50;99.90;;;;;;4958069;28;20206;-78
2023/06/16 01:22:57;;;;;;;3.90;3.43;;;15.50;99.90;;;;;;4958594;28;20214;-77
2023/06/16 01:25:30;;;;;;;4.87;3.20;;;15.50;99.90;;;;;;4956911;28;20732;-78
2023/06/16 01:28:00;;;;;;;3.50;3.20;;;15.40;99.90;;;;;;4959402;28;20281;-76
2023/06/16 01:30:30;;;;;;;3.40;3.10;;;15.40;99.90;;;;;;4958511;28;20277;-78
2023/06/16 01:32:58;;;;;;;3.47;3.17;;;15.30;99.90;;;;;;4959213;28;20248;-77
2023/06/16 01:35:26;;;;;;;3.50;2.90;;;15.30;99.90;;;;;;4958662;28;20739;-78
2023/06/16 01:37:55;;;;;;;3.60;2.87;;;15.20;99.90;;;;;;4957794;28;20233;-77
2023/06/16 01:40:22;;;;;;;4.50;3.50;;;15.20;99.90;;;;;;4957520;28;20202;-78
2023/06/16 01:42:52;;;;;;;4.37;3.90;;;15.10;99.90;;;;;;4960648;28;20706;-79
2023/06/16 01:45:19;;;;;;;4.13;3.73;;;15.00;99.90;;;;;;4958153;28;20203;-77
2023/06/16 01:47:47;;;;;;;5.40;4.30;;;15.00;99.90;;;;;;4956205;28;20223;-77
2023/06/16 01:50:15;;;;;;;5.03;4.10;;;14.90;99.90;;;;;;4955516;28;20205;-76
2023/06/16 01:52:43;;;;;;;5.93;3.90;;;14.80;99.90;;;;;;4956238;28;20302;-77
2023/06/16 01:55:10;;;;;;;6.87;4.30;;;14.80;99.90;;;;;;4955437;28;20232;-77
2023/06/16 01:57:37;;;;;;;7.23;6.63;;;14.70;99.90;;;;;;4954811;28;20782;-77
2023/06/16 02:00:14;;;;;;;8.30;7.60;;;14.70;99.90;;;;;;4954993;28;20249;-76
2023/06/16 02:02:45;;;;;;;5.10;4.70;;;14.70;99.90;;;;;;4958431;28;20206;-77
2023/06/16 02:05:13;;;;;;;6.70;6.10;;;14.60;99.90;;;;;;4958176;28;20208;-77
2023/06/16 02:07:45;;;;;;;6.67;6.10;;;14.50;99.90;;;;;;4957026;28;20227;-79
2023/06/16 02:10:13;;;;;;;5.60;5.10;;;14.40;99.90;;;;;;4959441;28;20197;-80
2023/06/16 02:12:40;;;;;;;8.10;6.10;;;14.40;99.90;;;;;;4957789;28;20227;-77
2023/06/16 02:15:10;;;;;;;5.33;3.97;;;14.30;99.90;;;;;;4958289;28;20201;-77
2023/06/16 02:17:37;;;;;;;6.20;4.17;;;14.30;99.90;;;;;;4958563;28;20237;-78
2023/06/16 02:20:06;;;;;;;5.27;4.40;;;14.20;99.90;;;;;;4959182;28;20204;-78
2023/06/16 02:22:33;;;;;;;5.20;4.40;;;14.20;99.90;;;;;;4956797;28;20197;-78
2023/06/16 02:25:00;;;;;;;4.87;4.10;;;14.30;99.90;;;;;;4959345;28;20204;-78
2023/06/16 02:27:27;;;;;;;5.90;4.17;;;14.30;99.90;;;;;;4958552;28;20246;-77
2023/06/16 02:29:57;;;;;;;4.90;4.40;;;14.20;99.90;;;;;;4957121;28;20205;-77
2023/06/16 02:32:26;;;;;;;5.97;4.90;;;14.30;99.90;;;;;;4958606;28;20305;-77
2023/06/16 02:34:55;;;;;;;4.77;4.27;;;14.30;99.90;;;;;;4956863;28;20204;-78
2023/06/16 02:37:27;;;;;;;4.30;3.90;;;14.30;99.90;;;;;;4949997;28;20236;-79
2023/06/16 02:39:56;;;;;;;5.07;4.40;;;14.20;99.90;;;;;;4962987;28;20212;-77
2023/06/16 02:42:23;;;;;;;6.50;5.90;;;14.10;99.90;;;;;;4955642;28;20212;-78
2023/06/16 02:44:50;;;;;;;5.70;5.20;;;14.10;99.90;;;;;;4957153;28;20202;-77
2023/06/16 02:47:18;;;;;;;7.33;6.73;;;14.10;99.90;;;;;;4954149;28;20234;-77
2023/06/16 02:49:46;;;;;;;7.37;6.67;;;14.10;99.90;;;;;;4956688;28;20289;-78
2023/06/16 02:52:13;;;;;;;7.30;6.70;;;14.10;99.90;;;;;;4950538;28;20236;-77
2023/06/16 02:54:41;;;;;;;7.13;6.57;;;14.10;99.90;;;;;;4955809;28;20203;-79
2023/06/16 02:57:09;;;;;;;7.33;6.63;;;14.00;99.90;;;;;;4947137;28;20257;-74
2023/06/16 02:59:47;;;;;;;6.30;5.73;;;14.00;99.90;;;;;;4953935;28;20672;-75
2023/06/16 03:02:14;;;;;;;7.90;7.20;;;14.00;99.90;;;;;;4955158;28;20200;-75
2023/06/16 03:04:50;;;;;;;6.50;5.90;;;14.00;99.90;;;;;;4955407;28;20299;-75
2023/06/16 03:07:21;;;;;;;5.40;4.90;;;13.90;99.90;;;;;;4951390;28;20309;-75
2023/06/16 03:09:48;;;;;;;6.50;5.90;;;13.90;99.90;;;;;;4956176;28;20204;-76
2023/06/16 03:12:16;;;;;;;6.73;6.13;;;13.90;99.90;;;;;;4955115;28;20224;-75
2023/06/16 03:15:06;;;;;;;5.67;4.67;;;13.80;99.90;;;;;;4958293;28;20740;-82
2023/06/16 03:17:35;;;;;;;5.83;5.23;;;13.80;99.90;;;;;;4958736;28;20246;-79
2023/06/16 03:20:04;;;;;;;5.20;4.70;;;13.80;99.90;;;;;;4957467;28;20251;-78
2023/06/16 03:22:53;;;;;;;6.90;6.20;;;13.70;99.90;;;;;;4959314;28;20255;-78
2023/06/16 03:25:21;;;;;;;5.87;5.27;;;13.70;99.90;;;;;;4950359;28;20206;-78
2023/06/16 03:27:49;;;;;;;7.03;6.43;;;13.70;99.90;;;;;;4953278;28;20313;-79
2023/06/16 03:30:20;;;;;;;8.27;7.57;;;13.60;99.90;;;;;;4987798;28;20709;-78
2023/06/16 03:33:02;;;;;;;7.13;6.53;;;13.60;99.90;;;;;;4958383;28;20286;-78
2023/06/16 03:35:32;;;;;;;6.87;6.27;;;13.60;99.90;;;;;;4958555;28;20676;-80
2023/06/16 03:38:01;;;;;;;5.30;4.80;;;13.70;99.90;;;;;;4959191;28;20262;-78
2023/06/16 03:40:30;;;;;;;7.60;7.00;;;13.60;99.90;;;;;;4950316;28;20201;-79
2023/06/16 03:42:57;;;;;;;7.87;7.07;;;13.60;99.90;;;;;;4957507;28;20204;-77
2023/06/16 03:45:24;;;;;;;8.30;7.53;;;13.50;99.90;;;;;;4956332;28;20686;-77
2023/06/16 03:47:53;;;;;;;4.40;4.00;;;13.50;99.90;;;;;;4955542;28;20241;-77
2023/06/16 03:50:20;;;;;;;5.13;4.60;;;13.50;99.90;;;;;;4957738;28;20227;-77
2023/06/16 03:52:49;;;;;;;5.33;4.70;;;13.50;99.90;;;;;;4956086;28;20227;-77
2023/06/16 03:55:16;;;;;;;6.00;5.03;;;13.60;99.90;;;;;;4955987;28;20210;-78
2023/06/16 03:57:43;;;;;;;5.30;4.60;;;13.60;99.90;;;;;;4954967;28;20314;-76
2023/06/16 04:00:11;;;;;;;5.20;4.70;;;13.70;99.90;;;;;;4955774;28;20199;-77
2023/06/16 04:02:42;;;;;;;5.07;4.57;;;13.80;99.90;;;;;;4957512;28;20291;-78
2023/06/16 04:05:13;;;;;;;5.50;4.77;;;13.80;99.90;;;;;;4955867;28;20209;-77
2023/06/16 04:07:40;;;;;;;5.07;4.20;;;13.90;99.90;;;;;;4955795;28;20218;-77
2023/06/16 04:10:09;;;;;;;5.43;4.30;;;14.00;99.90;;;;;;4956782;28;20222;-78
2023/06/16 04:12:36;;;;;;;5.90;5.30;;;14.00;99.90;;;;;;4955392;28;20207;-76
2023/06/16 04:15:06;;;;;;;7.60;7.00;;;14.00;99.90;;;;;;4956395;28;20207;-78
2023/06/16 04:17:33;;;;;;;8.43;7.73;;;13.90;99.90;;;;;;4954604;28;20216;-77
2023/06/16 04:20:00;;;;;;;8.20;7.50;;;13.90;99.90;;;;;;4954749;28;20204;-78
2023/06/16 04:22:27;;;;;;;9.27;8.37;;;13.90;99.90;;;;;;4957838;28;20259;-77
2023/06/16 04:24:56;;;;;;;9.07;8.27;;;13.90;99.90;;;;;;4955469;28;20282;-77
2023/06/16 04:27:25;;;;;;;8.47;7.77;;;14.00;99.90;;;;;;4954465;28;20741;-77
2023/06/16 04:29:54;;;;;;;8.00;7.30;;;14.10;99.90;;;;;;4955571;28;20283;-77
2023/06/16 04:32:20;;;;;;;7.70;6.90;;;14.20;99.90;;;;;;4955216;28;20293;-78
2023/06/16 04:34:51;;;;;;;7.47;6.63;;;14.30;99.90;;;;;;4955196;28;20196;-77
2023/06/16 04:37:20;;;;;;;8.23;7.53;;;14.30;99.90;;;;;;4985636;23;20232;-78
2023/06/16 04:39:48;;;;;;;6.20;5.60;;;14.30;99.90;;;;;;4992109;28;20593;-78
2023/06/16 04:42:19;;;;;;;7.57;6.00;;;14.40;99.90;;;;;;4994839;28;20610;-77
2023/06/16 04:44:48;;;;;;;5.73;5.10;;;14.60;99.90;;;;;;4992642;28;20577;-77
2023/06/16 04:47:17;;;;;;;6.70;5.10;;;14.80;99.90;;;;;;5000541;28;20267;-79
2023/06/16 04:49:45;;;;;;;6.37;5.60;;;15.00;99.90;;;;;;4972754;28;20603;-78
2023/06/16 04:52:12;;;;;;;6.43;5.57;;;15.40;99.90;;;;;;4972943;28;20291;-78
2023/06/16 04:54:40;;;;;;;7.00;6.30;;;15.80;99.90;;;;;;4972529;28;20713;-78
2023/06/16 04:57:08;;;;;;;6.17;5.07;;;16.00;99.90;;;;;;4971752;28;20308;-78
2023/06/16 04:59:36;;;;;;;7.07;5.00;;;16.10;99.90;;;;;;4972358;28;20211;-77
2023/06/16 05:02:04;;;;;;;5.67;5.03;;;16.20;99.90;;;;;;4973193;28;20190;-77
2023/06/16 05:04:34;;;;;;;5.63;5.00;;;16.30;99.90;;;;;;4983856;28;20189;-78
2023/06/16 05:07:00;;;;;;;7.90;7.20;;;16.40;99.90;;;;;;4972461;28;20684;-78
2023/06/16 05:09:28;;;;;;;7.60;6.87;;;16.60;99.90;;;;;;4971329;28;20200;-78
2023/06/16 05:11:55;;;;;;;7.90;7.10;;;16.80;99.90;;;;;;4973242;28;20945;-78
2023/06/16 05:14:22;;;;;;;6.40;5.80;;;16.90;99.90;;;;;;4972942;28;20244;-78
2023/06/16 05:16:49;;;;;;;7.13;6.43;;;17.20;99.90;;;;;;4980855;28;20193;-78
2023/06/16 05:19:19;;;;;;;5.90;5.40;;;17.50;99.90;;;;;;4981819;28;20202;-79
2023/06/16 05:21:55;;;;;;;6.57;5.97;;;17.70;99.90;;;;;;4972451;28;20217;-78
2023/06/16 05:24:22;;;;;;;7.80;7.10;;;17.80;99.90;;;;;;4973142;28;20241;-78
2023/06/16 05:26:49;;;;;;;6.83;6.20;;;17.90;99.90;;;;;;4972679;28;20289;-78
2023/06/16 05:29:16;;;;;;;7.47;6.77;;;17.90;99.90;;;;;;4973006;28;20200;-78
2023/06/16 05:31:43;;;;;;;8.07;7.37;;;18.00;99.90;;;;;;4974598;28;20276;-81
2023/06/16 05:34:10;;;;;;;7.83;7.17;;;18.00;99.90;;;;;;4973361;28;20204;-78
2023/06/16 05:36:38;;;;;;;7.53;6.40;;;18.00;99.90;;;;;;4972517;28;20232;-78
2023/06/16 05:39:08;;;;;;;7.40;6.80;;;18.20;99.90;;;;;;4972493;28;20612;-77
2023/06/16 05:41:35;;;;;;;7.10;6.50;;;18.60;99.90;;;;;;4972964;28;20245;-79
2023/06/16 05:44:03;;;;;;;7.07;6.00;;;19.00;99.90;;;;;;4973495;28;20200;-78
2023/06/16 05:46:30;;;;;;;6.37;4.30;;;19.60;99.90;;;;;;4972691;28;20208;-79
2023/06/16 05:48:58;;;;;;;4.87;4.23;;;20.10;99.90;;;;;;4972951;28;20217;-79
2023/06/16 05:51:25;;;;;;;5.20;4.30;;;20.60;99.90;;;;;;4973586;28;20565;-78
2023/06/16 05:53:54;;;;;;;5.67;4.63;;;21.20;99.90;;;;;;4972997;28;20631;-79
2023/06/16 05:56:24;;;;;;;5.40;4.33;;;21.60;99.90;;;;;;4972332;28;20229;-78
2023/06/16 05:58:51;;;;;;;5.83;4.60;;;22.00;99.90;;;;;;4972744;28;20224;-79
2023/06/16 06:01:18;;;;;;;8.60;5.83;;;22.30;99.90;;;;;;4974284;28;20261;-78
2023/06/16 06:03:46;;;;;;;7.40;4.80;;;22.70;99.90;;;;;;4981394;28;20300;-78
2023/06/16 06:06:15;;;;;;;5.63;4.60;;;23.00;99.90;;;;;;4974171;28;20224;-80
2023/06/16 06:08:44;;;;;;;5.10;4.03;;;23.20;99.90;;;;;;4973199;28;20704;-78
2023/06/16 06:11:14;;;;;;;5.33;4.23;;;23.50;99.60;;;;;;4973673;28;20274;-78
2023/06/16 06:13:41;;;;;;;5.87;4.20;;;23.70;99.00;;;;;;4973316;28;20214;-80
2023/06/16 06:16:11;;;;;;;5.70;5.00;;;23.90;98.60;;;;;;4973924;28;20205;-79
2023/06/16 06:18:38;;;;;;;5.10;4.40;;;24.10;98.80;;;;;;4973713;28;20252;-78
2023/06/16 06:21:05;;;;;;;4.83;4.20;;;24.20;98.70;;;;;;4974359;28;20253;-78
2023/06/16 06:23:32;;;;;;;5.90;5.30;;;24.40;98.60;;;;;;4973903;28;20197;-79
2023/06/16 06:25:59;;;;;;;5.30;4.80;;;24.70;97.70;;;;;;4973140;28;20221;-79
2023/06/16 06:28:27;;;;;;;6.70;6.10;;;25.00;96.90;;;;;;4972619;28;20218;-79
2023/06/16 06:30:54;;;;;;;6.50;5.80;;;25.10;96.10;;;;;;4976655;28;20201;-80
2023/06/16 06:33:22;;;;;;;6.57;4.40;;;25.20;96.40;;;;;;4975839;28;20222;-80
2023/06/16 06:35:49;;;;;;;5.90;4.50;;;25.30;95.60;;;;;;4977570;28;20233;-78
2023/06/16 06:38:16;;;;;;;8.07;4.50;;;25.20;95.70;;;;;;4976676;28;20320;-79
2023/06/16 06:40:44;;;;;;;9.17;4.50;;;25.30;96.20;;;;;;4985367;28;20194;-78
2023/06/16 06:43:13;;;;;;;4.70;3.93;;;25.50;95.40;;;;;;4982168;28;20194;-79
2023/06/16 06:45:49;;;;;;;5.73;4.70;;;25.70;94.80;;;;;;4978305;28;20200;-79
2023/06/16 06:48:16;;;;;;;5.83;4.73;;;25.80;95.40;;;;;;4993205;28;20223;-79
2023/06/16 06:50:44;;;;;;;7.30;5.53;;;25.80;95.30;;;;;;4983239;28;20193;-79
2023/06/16 06:53:11;;;;;;;6.53;5.70;;;25.90;94.80;;;;;;4985590;28;20241;-79
2023/06/16 06:55:38;;;;;;;6.73;4.40;;;26.00;94.60;;;;;;4977374;28;20665;-81
2023/06/16 06:58:04;;;;;;;5.27;4.77;;;26.10;94.80;;;;;;4979322;28;20241;-79
2023/06/16 07:00:31;;;;;;;8.90;5.77;;;26.20;94.20;;;;;;4977676;28;20707;-79
2023/06/16 07:03:00;;;;;;;6.73;6.03;;;26.30;94.90;;;;;;4977242;28;20197;-79
2023/06/16 07:05:26;;;;;;;6.43;5.83;;;26.50;94.50;;;;;;4988879;28;20754;-80
2023/06/16 07:07:53;;;;;;;7.47;5.80;;;26.70;93.60;;;;;;4988568;28;20312;-79
2023/06/16 07:10:20;;;;;;;6.50;5.90;;;26.90;93.30;;;;;;4988455;28;20236;-77
2023/06/16 07:12:47;;;;;;;6.43;5.90;;;27.00;92.90;;;;;;4986967;28;20730;-80
2023/06/16 07:15:14;;;;;;;5.83;4.13;;;27.00;93.40;;;;;;4969918;28;20198;-79
2023/06/16 07:17:41;;;;;;;6.70;6.10;;;27.10;92.70;;;;;;4986179;28;20213;-80
2023/06/16 07:20:10;;;;;;;5.87;5.30;;;27.30;93.10;;;;;;4978880;28;20253;-78
2023/06/16 07:22:37;;;;;;;6.00;5.50;;;27.60;92.70;;;;;;4988445;28;20209;-79
2023/06/16 07:25:07;;;;;;;5.23;3.83;;;27.60;91.80;;;;;;5003859;28;20235;-80
2023/06/16 07:27:34;;;;;;;7.27;4.27;;;27.40;92.10;;;;;;4984690;28;20244;-79
2023/06/16 07:30:01;;;;;;;4.40;4.00;;;27.50;92.20;;;;;;4970813;28;20221;-79
2023/06/16 07:32:30;;;;;;;5.40;4.90;;;27.80;91.90;;;;;;4980639;28;20269;-82
2023/06/16 07:34:57;;;;;;;5.20;4.03;;;28.10;92.30;;;;;;4993263;28;20243;-78
2023/06/16 07:37:25;;;;;;;5.80;4.00;;;28.40;90.70;;;;;;4979924;28;20233;-78
2023/06/16 07:39:52;;;;;;;5.77;3.90;;;28.20;89.70;;;;;;4980562;28;20211;-78
2023/06/16 07:42:19;;;;;;;5.83;3.90;;;28.10;90.30;;;;;;4988863;28;20197;-78
2023/06/16 07:44:47;;;;;;;5.20;4.00;;;28.20;90.70;;;;;;4989824;28;20225;-78
2023/06/16 07:47:14;;;;;;;6.20;4.13;;;28.10;90.10;;;;;;4990981;28;20225;-78
2023/06/16 07:49:41;;;;;;;4.97;3.50;;;28.10;90.20;;;;;;4982859;28;20221;-79
2023/06/16 07:52:09;;;;;;;5.90;5.10;;;28.20;90.30;;;;;;4977985;28;20222;-79
2023/06/16 07:54:37;;;;;;;7.37;4.13;;;28.50;90.70;;;;;;4983516;28;20229;-78
2023/06/16 07:57:04;;;;;;;6.40;3.90;;;28.50;87.30;;;;;;4983753;28;20197;-78
2023/06/16 07:59:31;;;;;;;4.10;3.70;;;28.60;89.70;;;;;;4985753;28;20201;-78
2023/06/16 08:01:58;;;;;;;6.07;3.90;;;29.00;87.70;;;;;;4986778;28;20641;-77
2023/06/16 08:04:29;;;;;;;4.07;3.67;;;28.90;86.60;;;;;;4980901;28;20197;-78
2023/06/16 08:06:56;;;;;;;3.97;3.67;;;28.70;86.30;;;;;;4989133;28;20185;-78
2023/06/16 08:09:23;;;;;;;4.77;4.00;;;28.80;86.00;;;;;;4989645;28;20702;-79
2023/06/16 08:11:51;;;;;;;6.27;3.77;;;29.00;87.10;;;;;;4976514;28;20277;-78
2023/06/16 08:14:18;;;;;;;5.83;5.30;;;29.20;86.00;;;;;;4996539;28;20232;-79
2023/06/16 08:16:45;;;;;;;4.20;3.80;;;29.20;83.70;;;;;;4994363;28;20690;-78
2023/06/16 08:19:12;;;;;;;5.03;3.33;;;29.20;85.10;;;;;;4979316;28;20206;-80
2023/06/16 08:21:38;;;;;;;4.57;3.53;;;29.40;83.00;;;;;;4988802;28;20193;-79
2023/06/16 08:24:06;;;;;;;4.93;3.90;;;29.50;82.30;;;;;;4991418;28;20206;-80
2023/06/16 08:26:32;;;;;;;6.27;4.77;;;29.70;83.20;;;;;;4984438;28;20205;-80
2023/06/16 08:29:03;;;;;;;5.27;4.57;;;29.90;82.80;;;;;;4979270;28;20229;-79
2023/06/16 08:31:29;;;;;;;8.03;4.13;;;29.90;80.20;;;;;;4982865;28;20209;-79
2023/06/16 08:33:58;;;;;;;4.53;3.73;;;29.60;82.20;;;;;;4975604;28;20343;-79
2023/06/16 08:36:25;;;;;;;6.60;6.00;;;29.80;82.30;;;;;;4976188;28;20198;-80
2023/06/16 08:38:53;;;;;;;4.73;3.53;;;30.00;81.60;;;;;;4975502;28;20612;-79
2023/06/16 08:41:20;;;;;;;5.70;5.20;;;30.20;80.80;;;;;;4976102;28;20209;-80
2023/06/16 08:43:50;;;;;;;6.73;5.80;;;30.50;81.10;;;;;;4980164;28;20224;-80
2023/06/16 08:46:18;;;;;;;7.23;5.53;;;30.70;81.80;;;;;;4976195;28;20673;-79
2023/06/16 08:48:45;;;;;;;6.40;5.80;;;31.00;80.00;;;;;;4977736;28;20767;-80
2023/06/16 08:51:14;;;;;;;6.77;5.83;;;31.00;79.40;;;;;;4983070;28;20747;-80
2023/06/16 08:53:43;;;;;;;6.73;5.70;;;30.80;80.10;;;;;;4966700;28;20226;-80
2023/06/16 08:56:11;;;;;;;6.57;6.03;;;31.10;79.40;;;;;;4976006;28;20205;-80
2023/06/16 08:58:40;;;;;;;6.03;5.53;;;31.20;79.30;;;;;;4974437;28;20209;-80
2023/06/16 09:01:07;;;;;;;6.45;5.85;;;31.30;77.90;;;;;;4983194;28;20676;-80
2023/06/16 09:03:37;;;;;;;6.93;6.10;;;31.60;78.60;;;;;;4982954;28;20201;-80
2023/06/16 09:06:04;;;;;;;6.45;5.78;;;31.80;76.70;;;;;;4988594;28;20235;-80
2023/06/16 09:08:31;;;;;;;6.00;5.47;;;31.70;70.30;;;;;;4983301;28;20225;-80
2023/06/16 09:10:58;;;;;;;6.20;5.70;;;31.70;71.00;;;;;;4981542;28;20282;-82
2023/06/16 09:13:25;;;;;;;6.75;5.97;;;31.30;73.40;;;;;;4973962;28;20696;-80
2023/06/16 09:15:56;;;;;;;6.75;6.15;;;31.10;71.50;;;;;;4974055;28;20201;-79
2023/06/16 09:18:24;;;;;;;6.88;6.18;;;30.80;74.70;;;;;;4973833;28;20230;-81
2023/06/16 09:20:53;;;;;;;7.13;5.60;;;30.70;76.10;;;;;;4973837;28;20675;-80
2023/06/16 09:23:28;;;;;;;6.40;5.80;;;30.10;75.00;;;;;;4973373;28;20194;-79
2023/06/16 09:25:55;;;;;;;6.33;5.83;;;30.10;74.40;;;;;;4973468;28;20288;-80
2023/06/16 09:28:33;;;;;;;6.32;5.72;;;30.20;74.10;;;;;;4974696;28;20245;-78
2023/06/16 09:31:02;;;;;;;6.40;5.80;;;30.50;76.50;;;;;;4973036;28;20293;-82
2023/06/16 09:33:30;;;;;;;6.57;5.97;;;30.80;70.80;;;;;;4976626;28;20225;-78
2023/06/16 09:35:58;;;;;;;7.07;6.37;;;30.50;69.60;;;;;;4976347;28;20221;-78
2023/06/16 09:38:26;;;;;;;6.73;6.10;;;30.30;68.60;;;;;;4978040;28;20293;-78
2023/06/16 09:40:53;;;;;;;6.27;5.77;;;30.70;71.70;;;;;;4989808;28;20766;-78
2023/06/16 09:43:20;;;;;;;8.03;6.13;;;30.90;69.00;;;;;;4976380;28;20288;-78
2023/06/16 09:45:56;;;;;;;6.57;5.97;;;30.70;68.60;;;;;;4974216;28;20289;-78
2023/06/16 09:48:26;;;;;;;8.13;5.80;;;30.60;72.60;;;;;;4985363;28;20302;-78
2023/06/16 09:50:53;;;;;;;6.87;6.17;;;30.30;70.40;;;;;;4986929;28;20194;-79
2023/06/16 09:53:26;;;;;;;5.10;4.03;;;29.00;71.10;;;;;;4982321;28;20226;-78
2023/06/16 09:55:56;;;;;;;4.43;4.03;;;28.50;75.00;;;;;;4986219;28;20212;-79
2023/06/16 09:58:23;;;;;;;4.73;3.97;;;29.00;72.60;;;;;;4983866;28;20249;-79
2023/06/16 10:00:49;;;;;;;5.43;3.80;;;29.60;73.40;;;;;;4983033;28;20197;-79
2023/06/16 10:03:20;;;;;;;4.27;3.87;;;30.10;71.10;;;;;;4978674;28;20610;-78
2023/06/16 10:05:53;;;;;;;6.17;4.37;;;30.40;68.60;;;;;;4974748;28;20232;-78
2023/06/16 10:08:20;;;;;;;6.03;5.30;;;31.00;71.00;;;;;;4975233;28;20230;-79
2023/06/16 10:10:51;;;;;;;5.37;4.83;;;30.60;67.60;;;;;;4975050;28;20253;-79
2023/06/16 10:13:20;;;;;;;6.10;4.13;;;30.10;68.90;;;;;;4975052;28;20221;-78
2023/06/16 10:15:49;;;;;;;5.43;4.00;;;30.10;68.70;;;;;;4974603;28;20292;-78
2023/06/16 10:18:18;;;;;;;4.20;3.67;;;30.30;69.60;;;;;;4983614;28;20293;-78
2023/06/16 10:20:47;;;;;;;5.53;4.57;;;30.80;70.10;;;;;;4974570;28;20229;-79
2023/06/16 10:23:14;;;;;;;4.37;3.97;;;31.00;67.20;;;;;;4977226;28;20595;-78
2023/06/16 10:25:41;;;;;;;6.27;3.80;;;31.10;67.40;;;;;;4976653;28;20256;-79
2023/06/16 10:28:13;;;;;;;5.53;3.77;;;30.60;69.40;;;;;;4974806;28;20218;-78
2023/06/16 10:30:41;;;;;;;5.10;4.30;;;30.10;68.10;;;;;;4975419;28;20197;-79
2023/06/16 10:33:17;;;;;;;4.20;3.60;;;29.90;70.50;;;;;;4971504;28;20220;-78
2023/06/16 10:35:50;;;;;;;6.13;3.70;;;30.00;69.10;;;;;;4975621;28;20207;-77
2023/06/16 10:38:17;;;;;;;5.77;3.70;;;30.10;69.30;;;;;;5019213;22;20773;-78
2023/06/16 10:40:45;;;;;;;5.57;3.97;;;30.30;68.60;;;;;;5027521;28;20203;-78
2023/06/16 10:43:24;;;;;;;6.50;3.90;;;30.20;67.80;;;;;;5035976;28;20196;-79
2023/06/16 10:46:11;;;;;;;5.07;4.10;;;30.20;66.90;;;;;;5025771;28;20329;-77
2023/06/16 10:48:57;;;;;;;4.67;3.87;;;30.40;67.50;;;;;;5023266;28;20232;-81
2023/06/16 10:51:41;;;;;;;5.10;3.77;;;30.50;64.50;;;;;;5033879;28;20200;-82
2023/06/16 10:54:08;;;;;;;6.03;3.90;;;30.70;66.60;;;;;;5029419;28;20214;-80
2023/06/16 10:57:01;;;;;;;4.13;3.70;;;30.50;66.20;;;;;;5033271;28;20291;-80
2023/06/16 10:59:30;;;;;;;4.57;3.57;;;29.60;65.30;;;;;;5034867;28;20299;-81
2023/06/16 11:01:58;;;;;;;3.80;3.40;;;29.00;66.80;;;;;;5035581;28;20224;-80
2023/06/16 11:04:26;;;;;;;4.73;3.80;;;28.70;66.20;;;;;;5035335;28;20192;-80
2023/06/16 11:07:11;;;;;;;3.90;3.50;;;29.00;66.80;;;;;;5050269;28;20291;-82
2023/06/16 11:09:38;;;;;;;4.43;3.57;;;29.30;65.90;;;;;;5035144;28;20269;-81
2023/06/16 11:12:07;;;;;;;3.63;3.33;;;29.40;65.00;;;;;;5035325;28;21035;-81
2023/06/16 11:14:35;;;;;;;6.30;3.83;;;29.10;66.00;;;;;;5033693;28;20216;-81
2023/06/16 11:17:05;;;;;;;5.00;3.33;;;29.00;65.70;;;;;;5034308;28;20655;-81
2023/06/16 11:19:32;;;;;;;3.83;3.33;;;28.90;67.10;;;;;;5033043;28;20244;-80
2023/06/16 11:22:02;;;;;;;6.30;4.20;;;28.80;68.20;;;;;;5032423;28;20203;-80
2023/06/16 11:24:32;;;;;;;6.37;3.87;;;28.40;68.60;;;;;;5037135;28;20196;-81
2023/06/16 11:27:00;;;;;;;6.33;4.27;;;28.00;70.50;;;;;;5039961;28;20208;-80
2023/06/16 11:29:28;;;;;;;5.00;4.13;;;28.10;68.90;;;;;;5036743;28;20637;-81
2023/06/16 11:31:59;;;;;;;4.57;3.97;;;28.20;68.80;;;;;;5038957;28;20282;-82
2023/06/16 11:34:26;;;;;;;5.47;3.97;;;28.50;68.00;;;;;;5037403;28;20278;-81
2023/06/16 11:36:53;;;;;;;5.53;3.70;;;28.70;67.80;;;;;;5037966;28;20275;-80
2023/06/16 11:39:20;;;;;;;4.00;3.40;;;29.10;68.60;;;;;;5038079;28;20231;-79
2023/06/16 11:41:47;;;;;;;4.40;3.73;;;29.20;67.50;;;;;;5038010;28;20260;-80
2023/06/16 11:44:14;;;;;;;4.30;3.90;;;29.30;67.70;;;;;;5038051;28;20215;-78
2023/06/16 11:46:41;;;;;;;5.73;3.77;;;29.40;66.50;;;;;;5035897;28;20208;-79
2023/06/16 11:49:11;;;;;;;4.40;3.90;;;29.10;66.60;;;;;;5035760;28;20223;-78
2023/06/16 11:51:38;;;;;;;4.30;3.60;;;28.80;64.90;;;;;;5035489;28;20670;-78
2023/06/16 11:54:05;;;;;;;8.80;3.93;;;28.90;66.50;;;;;;5035469;28;20207;-77
2023/06/16 11:56:33;;;;;;;5.40;4.00;;;28.80;65.80;;;;;;5036483;28;20226;-79
2023/06/16 11:59:03;;;;;;;8.70;3.83;;;28.90;65.60;;;;;;5035783;28;20208;-78
2023/06/16 12:01:30;;;;;;;4.77;4.00;;;28.90;66.00;;;;;;5034634;28;20825;-79
2023/06/16 12:03:57;;;;;;;7.67;3.70;;;29.00;66.80;;;;;;5037035;28;20246;-78
2023/06/16 12:06:27;;;;;;;7.00;4.17;;;29.00;67.30;;;;;;5037070;28;20211;-78
2023/06/16 12:08:56;;;;;;;4.43;3.97;;;29.00;67.60;;;;;;5028728;28;20710;-78
2023/06/16 12:11:27;;;;;;;5.50;3.90;;;28.70;68.30;;;;;;5035068;28;20212;-78
2023/06/16 12:13:55;;;;;;;4.30;3.83;;;28.40;67.80;;;;;;5029347;28;20274;-79
2023/06/16 12:16:22;;;;;;;4.37;3.63;;;28.30;67.70;;;;;;5037405;28;20208;-80
2023/06/16 12:18:50;;;;;;;5.67;3.80;;;28.20;66.50;;;;;;5037203;28;20223;-79
2023/06/16 12:21:19;;;;;;;4.40;3.90;;;28.30;67.20;;;;;;5037078;28;20207;-79
2023/06/16 12:23:53;;;;;;;4.73;4.23;;;28.30;68.40;;;;;;5036614;28;20247;-79
2023/06/16 12:26:30;;;;;;;6.57;4.10;;;28.40;68.80;;;;;;5036493;28;20203;-79
2023/06/16 12:28:58;;;;;;;4.73;3.80;;;28.40;67.90;;;;;;5030881;28;20219;-78
2023/06/16 12:31:28;;;;;;;4.30;3.73;;;28.40;68.10;;;;;;5036516;28;20196;-78
2023/06/16 12:33:55;;;;;;;4.60;4.10;;;28.20;67.50;;;;;;5027350;28;20573;-80
2023/06/16 12:36:22;;;;;;;5.73;3.77;;;28.20;66.80;;;;;;5036477;28;20257;-78
2023/06/16 12:38:53;;;;;;;6.90;4.13;;;27.80;66.80;;;;;;5035467;28;20270;-78
2023/06/16 12:41:20;;;;;;;5.53;3.60;;;27.50;66.50;;;;;;5029005;28;20738;-76
2023/06/16 12:43:49;;;;;;;4.90;4.00;;;27.50;68.60;;;;;;5032773;28;20234;-75
2023/06/16 12:46:15;;;;;;;5.67;3.90;;;27.40;68.60;;;;;;5033828;28;20279;-78
2023/06/16 12:48:42;;;;;;;6.17;4.03;;;27.40;67.70;;;;;;5032144;28;20224;-77
2023/06/16 12:51:10;;;;;;;4.53;3.90;;;27.50;67.90;;;;;;5036349;28;20200;-78
2023/06/16 12:53:41;;;;;;;5.03;4.23;;;27.40;70.20;;;;;;5035992;28;20621;-77
2023/06/16 12:56:10;;;;;;;6.73;3.80;;;27.20;69.30;;;;;;5034866;28;20207;-78